New Braunfels, TX (78132)

11:14 PM CST on December 21, 2014 (GMT -0600)
Oakwood Estates | Change Station
CLOSE
Current Station
Personal Weather Station
Location: New Braunfels, TX
Elevation: 758 ft
Nearby Weather Stations

Elev 758 ft 29.72 °N, 98.14 °W | Updated 13 seconds ago

Overcast
Overcast
55.1 °F
Feels Like 55.1 °F
N
0.0
Wind Variable Wind from South
Gusts 4.0 mph

Today
High -- | Low -- °F
--% Chance of Precip.
Yesterday
High -- | Low -- °F
Precip. -- in
7:23 AM 5:37 PM
New Moon, 0% visible
Pressure 29.85 in
Visibility 5.0 miles
Clouds Overcast 900 ft
Dew Point 54 °F
Humidity 95%
Rainfall 0.00 in
Snow Depth Not available.
UV 0 out of 12
Pollen 9.10 out of 12
Air Quality Not available.
Flu Activity Not available.
SPECI KBAZ 220510Z AUTO 21005KT 5SM BR OVC009 13/12 A2985 RMK AO2 T01280117

More Conditions Fewer Conditions

Pressure 29.85 in
Visibility 5.0 miles
Clouds Overcast 900 ft
Dew Point 54 °F
Humidity 95%
Rainfall 0.00 in
Snow Depth Not available.
UV 0 out of 12
Pollen 9.10 out of 12
Air Quality Not available.
Flu Activity Not available.
SPECI KBAZ 220510Z AUTO 21005KT 5SM BR OVC009 13/12 A2985 RMK AO2 T01280117

More Conditions Fewer Conditions

Nowcast | as of 11:02 PM CST on December 21, 2014

Overnight...patchy light drizzle will occur across south-central Texas. Little to no-measurable rainfall is expected.

×

10-Day Weather Forecast

Almanac

Astronomy

Dec. 21, 2014 Rise Set
Actual Time
Civil Twilight
Nautical Twilight
Astronomical Twilight
Moon
Length of Visible Light
Length of Day
Tomorrow will be .
, % of the Moon is Illuminated

Today's Extremes

State Highs State Lows

Community

WunderPhotos

Upload Photos

1,779,547 photos uploaded!

WunderBlogs® & News

Nearby

Air Quality

  Air Quality AQ Index Pollutant
Not available.

Snow Depth

Station Depth Elevation

Earthquake Activity

City Distance Mag. Time & Date
Minimum magnitude displayed is 2.5.

Coastal Water Temperatures

Place Temperature

Nearby Weather Stations